.
WxDataArchive / Data Records for 2012-05-28
2012-05-27 May 2012 2012-05-29

Data Records for Monday, 28 May 2012

Time	Temp	Chill	HIndex	Humid	Dewpt	 Wind 	HiWind	WindDir	Rain 	Barom 
-----	----	-----	------	-----	-----	------	------	-------	-----	----- 
00:00	73.9	73.9	73.9	65	61.4	0	0	---	0.00	29.897 
00:05	73.7	73.7	73.7	66	61.6	0	0	---	0.00	29.897 
00:10	73.3	73.3	73.3	68	62.1	0	0	---	0.00	29.897 
00:15	73.0	73.0	73.0	69	62.2	0	0	---	0.00	29.897 
00:20	72.8	72.8	72.8	69	62.0	0	2	90	0.00	29.897 
00:25	72.7	72.7	72.7	69	61.9	0	0	---	0.00	29.897 
00:30	72.5	72.5	72.5	69	61.7	0	0	---	0.00	29.892 
00:35	72.3	72.3	72.3	69	61.5	0	0	---	0.00	29.892 
00:40	72.1	72.1	72.1	70	61.8	0	0	---	0.00	29.892 
00:45	72.0	72.0	72.0	70	61.7	0	0	---	0.00	29.890 
00:50	71.8	71.8	71.8	70	61.5	0	0	---	0.00	29.890 
00:55	71.8	71.8	71.8	71	61.9	0	0	---	0.00	29.890 
01:00	71.6	71.6	71.6	71	61.7	0	0	---	0.00	29.887 
01:05	71.5	71.5	71.5	72	62.0	0	0	---	0.00	29.887 
01:10	71.5	71.5	71.5	72	62.0	0	0	---	0.00	29.887 
01:15	71.3	71.3	71.3	73	62.2	0	0	---	0.00	29.881 
01:20	71.1	71.1	71.1	73	62.0	0	0	---	0.00	29.881 
01:25	70.8	70.8	70.8	74	62.1	0	0	---	0.00	29.881 
01:30	70.6	70.6	70.6	74	61.9	0	0	---	0.00	29.879 
01:35	70.4	70.4	70.4	75	62.1	0	0	---	0.00	29.879 
01:40	70.3	70.3	70.3	75	62.0	0	0	---	0.00	29.879 
01:45	70.1	70.1	70.1	75	61.8	0	0	---	0.00	29.876 
01:50	70.1	70.1	70.1	76	62.2	0	0	---	0.00	29.876 
01:55	69.9	69.9	69.9	76	62.0	0	0	---	0.00	29.876 
02:00	69.9	69.9	69.9	77	62.3	0	0	---	0.00	29.872 
02:05	69.8	69.8	69.8	77	62.3	0	0	---	0.00	29.872 
02:10	69.8	69.8	69.8	77	62.3	0	0	---	0.00	29.872 
02:15	69.8	69.8	69.8	77	62.3	0	0	---	0.00	29.870 
02:20	69.9	69.9	69.9	77	62.3	0	0	---	0.00	29.870 
02:25	69.9	69.9	69.9	77	62.3	0	0	---	0.00	29.870 
02:30	70.1	70.1	70.1	77	62.5	0	0	---	0.00	29.869 
02:35	70.1	70.1	70.1	77	62.5	0	0	---	0.00	29.869 
02:40	70.1	70.1	70.1	77	62.5	0	0	---	0.00	29.869 
02:45	70.1	70.1	70.1	77	62.5	0	0	---	0.00	29.863 
02:50	70.1	70.1	70.1	77	62.5	0	0	---	0.00	29.863 
02:55	70.1	70.1	70.1	77	62.5	0	0	---	0.00	29.863 
03:00	70.3	70.3	70.3	77	62.7	0	0	---	0.00	29.859 
03:05	70.4	70.4	70.4	77	62.8	0	0	---	0.00	29.859 
03:10	70.8	70.8	70.8	77	63.2	0	0	---	0.00	29.859 
03:15	71.1	71.1	71.1	77	63.5	0	0	---	0.00	29.854 
03:20	71.5	71.5	71.5	77	63.9	0	1	90	0.00	29.854 
03:25	71.8	71.8	71.8	76	63.8	0	0	---	0.00	29.854 
03:30	72.1	72.1	72.1	76	64.1	0	0	---	0.00	29.851 
03:35	72.3	72.3	72.3	75	63.9	0	0	---	0.00	29.851 
03:40	72.8	72.8	72.8	74	64.0	0	0	---	0.00	29.851 
03:45	73.0	73.0	73.0	74	64.2	0	0	---	0.00	29.853 
03:50	73.2	73.2	73.2	73	64.0	0	0	---	0.00	29.853 
03:55	73.0	73.0	73.0	73	63.8	0	0	---	0.00	29.853 
04:00	73.0	73.0	73.0	73	63.8	0	0	---	0.00	29.852 
04:05	72.8	72.8	72.8	74	64.0	0	0	---	0.00	29.852 
04:10	73.2	73.2	73.2	74	64.4	0	1	90	0.00	29.852 
04:15	73.2	73.2	73.2	73	64.0	0	0	---	0.00	29.851 
04:20	73.2	73.2	73.2	73	64.0	0	0	---	0.00	29.851 
04:25	73.2	73.2	73.2	73	64.0	0	1	90	0.00	29.851 
04:30	73.2	73.2	73.2	73	64.0	0	1	90	0.00	29.852 
04:35	73.2	73.2	73.2	73	64.0	0	0	---	0.00	29.852 
04:40	73.5	73.5	73.5	73	64.3	0	1	90	0.00	29.852 
04:45	73.5	73.5	73.5	73	64.3	0	1	90	0.00	29.849 
04:50	73.7	73.7	73.7	72	64.1	0	0	---	0.00	29.849 
04:55	73.7	73.7	73.7	72	64.1	0	1	90	0.00	29.849 
05:00	73.7	73.7	73.7	72	64.1	0	2	90	0.00	29.852 
05:05	73.7	73.7	73.7	72	64.1	0	1	90	0.00	29.852 
05:10	73.9	73.9	73.9	72	64.3	0	1	90	0.00	29.852 
05:15	73.9	73.9	73.9	72	64.3	0	1	90	0.00	29.854 
05:20	73.9	73.9	73.9	72	64.3	0	1	90	0.00	29.854 
05:25	73.9	73.9	73.9	72	64.3	0	1	90	0.00	29.854 
05:30	73.7	73.7	73.7	72	64.1	0	1	90	0.00	29.856 
05:35	73.9	73.9	73.9	72	64.3	0	2	90	0.00	29.856 
05:40	73.9	73.9	73.9	72	64.3	0	1	90	0.00	29.856 
05:45	73.7	73.7	73.7	72	64.1	0	0	---	0.00	29.863 
05:50	73.7	73.7	73.7	72	64.1	0	1	90	0.00	29.863 
05:55	73.5	73.5	73.5	72	63.9	0	1	90	0.00	29.863 
06:00	73.5	73.5	73.5	73	64.3	0	1	90	0.00	29.869 
06:05	73.5	73.5	73.5	73	64.3	0	1	90	0.00	29.869 
06:10	73.3	73.3	73.3	73	64.1	0	0	---	0.00	29.869 
06:15	73.2	73.2	73.2	73	64.0	0	0	---	0.00	29.872 
06:20	73.0	73.0	73.0	73	63.8	0	0	---	0.00	29.872 
06:25	72.8	72.8	72.8	74	64.0	0	0	---	0.00	29.872 
06:30	72.7	72.7	72.7	74	63.9	0	0	---	0.00	29.878 
06:35	72.7	72.7	72.7	74	63.9	0	0	---	0.00	29.878 
06:40	72.5	72.5	72.5	75	64.1	0	0	---	0.00	29.878 
06:45	72.5	72.5	72.5	75	64.1	0	0	---	0.00	29.886 
06:50	72.5	72.5	72.5	75	64.1	0	0	---	0.00	29.886 
06:55	72.5	72.5	72.5	76	64.5	0	1	90	0.00	29.886 
07:00	72.7	72.7	72.7	75	64.3	0	1	90	0.00	29.888 
07:05	72.7	72.7	72.7	75	64.3	0	0	---	0.00	29.888 
07:10	72.7	72.7	72.7	75	64.3	0	0	---	0.00	29.888 
07:15	72.8	72.8	72.8	75	64.4	0	0	---	0.00	29.890 
07:20	73.0	73.0	73.0	75	64.6	0	0	---	0.00	29.890 
07:25	73.2	73.2	73.2	75	64.8	0	1	90	0.00	29.890 
07:30	73.7	73.7	73.7	74	64.9	0	1	90	0.00	29.891 
07:35	74.0	74.0	74.0	74	65.2	0	1	90	0.00	29.891 
07:40	74.6	74.6	74.6	73	65.4	0	1	90	0.00	29.891 
07:45	74.9	74.9	74.9	72	65.2	0	1	90	0.00	29.890 
07:50	75.3	75.3	76.9	71	65.2	0	2	90	0.00	29.890 
07:55	75.8	75.8	77.4	71	65.7	0	2	90	0.00	29.890 
08:00	76.1	76.1	77.8	70	65.6	0	2	90	0.00	29.888 
08:05	76.7	76.7	78.4	69	65.7	0	2	90	0.00	29.888 
08:10	77.0	77.0	78.8	68	65.6	0	2	90	0.00	29.888 
08:15	77.4	77.4	79.2	67	65.6	1	3	90	0.00	29.894 
08:20	77.9	77.9	79.8	66	65.6	1	3	248	0.00	29.894 
08:25	78.5	78.5	80.4	65	65.7	1	4	225	0.00	29.894 
08:30	78.6	78.6	80.5	64	65.4	1	3	225	0.00	29.894 
08:35	79.0	79.0	80.9	63	65.3	1	3	248	0.00	29.894 
08:40	79.4	79.4	81.4	63	65.7	1	3	292	0.00	29.894 
08:45	79.9	79.9	81.9	62	65.7	0	2	292	0.00	29.899 
08:50	80.3	80.3	82.2	60	65.1	1	3	292	0.00	29.899 
08:55	80.5	80.5	82.4	60	65.3	1	4	292	0.00	29.899 
09:00	80.9	80.9	82.8	59	65.2	1	3	292	0.00	29.896 
09:05	81.2	81.2	83.0	58	65.0	1	2	292	0.00	29.896 
09:10	81.6	81.6	83.5	58	65.4	1	3	292	0.00	29.896 
09:15	81.8	81.8	83.6	57	65.0	2	3	292	0.00	29.894 
09:20	82.0	82.0	83.6	55	64.2	2	4	292	0.00	29.894 
09:25	82.4	82.4	84.2	56	65.1	1	3	270	0.00	29.894 
09:30	82.6	82.6	84.3	55	64.8	1	4	292	0.00	29.891 
09:35	82.8	82.8	84.4	54	64.4	2	5	292	0.00	29.891 
09:40	83.2	83.2	84.9	54	64.8	1	2	292	0.00	29.891 
09:45	84.0	84.0	85.8	53	65.0	1	2	292	0.00	29.887 
09:50	84.1	84.1	85.7	52	64.5	2	4	248	0.00	29.887 
09:55	84.5	84.5	86.0	51	64.4	1	4	248	0.00	29.887 
10:00	84.7	84.7	86.0	50	64.0	1	3	248	0.00	29.885 
10:05	84.9	84.9	86.3	50	64.2	1	4	248	0.00	29.885 
10:10	85.1	85.1	86.6	50	64.3	2	4	248	0.00	29.885 
10:15	85.3	85.3	86.6	49	63.9	1	4	248	0.00	29.882 
10:20	85.5	85.5	87.2	50	64.7	2	3	248	0.00	29.882 
10:25	85.7	85.7	87.2	49	64.3	2	4	270	0.00	29.882 
10:30	85.9	85.9	87.2	48	63.9	3	6	270	0.00	29.877 
10:35	86.1	86.1	87.5	48	64.1	2	5	270	0.00	29.877 
10:40	86.7	86.7	88.3	48	64.6	1	4	270	0.00	29.877 
10:45	87.4	87.4	88.5	45	63.4	2	4	248	0.00	29.873 
10:50	87.4	87.4	88.8	46	64.0	1	3	270	0.00	29.873 
10:55	87.8	87.8	89.1	45	63.8	2	4	270	0.00	29.873 
11:00	88.0	88.0	89.0	44	63.3	1	5	270	0.00	29.864 
11:05	88.0	88.0	89.0	44	63.3	2	9	248	0.00	29.864 
11:10	88.4	88.4	89.6	44	63.7	2	3	270	0.00	29.864 
11:15	88.8	88.8	89.9	43	63.4	2	4	270	0.00	29.859 
11:20	89.0	89.0	89.6	41	62.2	2	3	270	0.00	29.859 
11:25	89.0	89.0	89.6	41	62.2	3	6	270	0.00	29.859 
11:30	89.0	89.0	89.6	41	62.2	3	6	270	0.00	29.857 
11:35	88.8	88.8	89.6	42	62.7	3	7	270	0.00	29.857 
11:40	89.3	89.3	90.3	42	63.2	2	5	270	0.00	29.857 
11:45	89.3	89.3	90.3	42	63.2	3	6	270	0.00	29.858 
11:50	88.6	88.6	89.3	42	62.5	3	5	270	0.00	29.858 
11:55	88.4	88.4	89.0	42	62.3	2	4	270	0.00	29.858 
12:00	88.6	88.6	89.6	43	63.2	2	5	270	0.00	29.854 
12:05	89.5	89.5	90.6	42	63.3	2	6	270	0.00	29.854 
12:10	89.9	89.9	90.2	39	61.6	3	7	270	0.00	29.854 
12:15	90.1	90.1	90.8	40	62.5	2	5	292	0.00	29.849 
12:20	90.3	90.3	90.8	39	61.9	2	4	270	0.00	29.849 
12:25	90.5	90.5	90.7	38	61.4	2	5	270	0.00	29.849 
12:30	90.1	90.1	90.2	38	61.0	3	7	248	0.00	29.844 
12:35	89.9	89.9	90.2	39	61.6	2	4	315	0.00	29.844 
12:40	89.7	89.7	89.9	39	61.4	2	5	292	0.00	29.844 
12:45	89.9	89.9	89.9	38	60.8	3	5	270	0.00	29.843 
12:50	90.1	90.1	89.9	37	60.3	2	4	248	0.00	29.843 
12:55	90.3	90.3	90.1	37	60.4	3	9	270	0.00	29.843 
13:00	90.5	90.5	90.4	37	60.6	2	4	270	0.00	29.835 
13:05	91.0	91.0	90.8	36	60.3	2	6	292	0.00	29.835 
13:10	91.2	91.2	90.8	35	59.7	3	6	270	0.00	29.835 
13:15	91.4	91.4	92.1	38	62.2	2	5	270	0.00	29.833 
13:20	91.6	91.6	91.3	35	60.0	3	6	270	0.00	29.833 
13:25	92.1	92.1	92.0	35	60.5	1	3	202	0.00	29.833 
13:30	92.5	92.5	92.3	34	60.0	2	7	225	0.00	29.828 
13:35	92.7	92.7	92.5	34	60.2	2	5	270	0.00	29.828 
13:40	92.7	92.7	92.2	33	59.3	2	4	270	0.00	29.828 
13:45	92.7	92.7	92.2	33	59.3	2	8	292	0.00	29.826 
13:50	92.9	92.9	92.5	33	59.5	2	6	248	0.00	29.826 
13:55	92.9	92.9	92.1	32	58.6	2	6	270	0.00	29.826 
14:00	92.9	92.9	91.8	31	57.8	2	6	270	0.00	29.818 
14:05	92.7	92.7	91.9	32	58.5	3	6	270	0.00	29.818 
14:10	92.5	92.5	91.6	32	58.3	2	5	270	0.00	29.818 
14:15	92.7	92.7	92.2	33	59.3	2	4	270	0.00	29.814 
14:20	93.4	93.4	93.2	33	59.9	2	5	248	0.00	29.814 
14:25	93.4	93.4	92.2	30	57.3	3	7	248	0.00	29.814 
14:30	92.7	92.7	91.6	31	57.6	2	6	270	0.00	29.813 
14:35	92.5	92.5	92.6	35	60.8	1	3	248	0.00	29.813 
14:40	93.4	93.4	92.8	32	59.1	1	2	248	0.00	29.813 
14:45	94.0	94.0	93.3	31	58.7	2	5	248	0.00	29.808 
14:50	93.8	93.8	92.7	30	57.6	2	6	270	0.00	29.808 
14:55	93.8	93.8	93.4	32	59.4	2	6	248	0.00	29.808 
15:00	93.6	93.6	92.8	31	58.4	4	6	270	0.00	29.799 
15:05	93.2	93.2	92.6	32	58.9	2	5	248	0.00	29.799 
15:10	92.7	92.7	92.5	34	60.2	1	6	270	0.00	29.799 
15:15	92.9	92.9	91.8	31	57.8	2	5	248	0.00	29.795 
15:20	92.7	92.7	91.9	32	58.5	2	7	270	0.00	29.795 
15:25	92.9	92.9	92.1	32	58.6	3	9	270	0.00	29.795 
15:30	93.4	93.4	92.2	30	57.3	1	5	248	0.00	29.788 
15:35	93.2	93.2	92.2	31	58.0	2	4	248	0.00	29.788 
15:40	93.2	93.2	92.2	31	58.0	2	5	270	0.00	29.788 
15:45	92.5	92.5	91.3	31	57.4	2	6	270	0.00	29.780 
15:50	92.5	92.5	91.3	31	57.4	2	6	270	0.00	29.780 
15:55	92.5	92.5	91.3	31	57.4	2	5	270	0.00	29.780 
16:00	92.7	92.7	91.6	31	57.6	2	5	270	0.00	29.779 
16:05	93.4	93.4	92.2	30	57.3	2	6	270	0.00	29.779 
16:10	93.4	93.4	92.2	30	57.3	4	7	270	0.00	29.779 
16:15	93.4	93.4	91.9	29	56.3	2	5	248	0.00	29.777 
16:20	93.4	93.4	92.5	31	58.2	1	4	270	0.00	29.777 
16:25	93.8	93.8	92.7	30	57.6	2	7	270	0.00	29.777 
16:30	94.0	94.0	93.0	30	57.8	2	7	90	0.00	29.771 
16:35	94.0	94.0	92.7	29	56.8	2	5	292	0.00	29.771 
16:40	93.6	93.6	92.1	29	56.5	2	6	270	0.00	29.771 
16:45	93.6	93.6	92.5	30	57.4	2	6	248	0.00	29.767 
16:50	93.8	93.8	92.7	30	57.6	2	5	248	0.00	29.767 
16:55	94.0	94.0	92.7	29	56.8	1	3	248	0.00	29.767 
17:00	94.0	94.0	92.7	29	56.8	2	5	270	0.00	29.760 
17:05	94.0	94.0	93.0	30	57.8	2	5	270	0.00	29.760 
17:10	93.8	93.8	92.7	30	57.6	2	5	248	0.00	29.760 
17:15	93.8	93.8	93.1	31	58.5	2	5	315	0.00	29.758 
17:20	94.0	94.0	93.0	30	57.8	2	4	270	0.00	29.758 
17:25	94.0	94.0	93.0	30	57.8	2	5	270	0.00	29.758 
17:30	93.6	93.6	92.5	30	57.4	2	4	248	0.00	29.757 
17:35	93.2	93.2	92.2	31	58.0	2	6	248	0.00	29.757 
17:40	92.9	92.9	92.1	32	58.6	2	6	270	0.00	29.757 
17:45	92.9	92.9	91.8	31	57.8	2	5	248	0.00	29.749 
17:50	92.9	92.9	91.8	31	57.8	2	6	248	0.00	29.749 
17:55	92.5	92.5	91.6	32	58.3	2	5	292	0.00	29.749 
18:00	92.5	92.5	91.9	33	59.2	1	4	248	0.00	29.748 
18:05	92.5	92.5	91.9	33	59.2	2	5	270	0.00	29.748 
18:10	92.3	92.3	91.3	32	58.1	2	5	270	0.00	29.748 
18:15	92.3	92.3	91.6	33	59.0	1	4	270	0.00	29.747 
18:20	92.3	92.3	92.0	34	59.8	1	5	248	0.00	29.747 
18:25	91.8	91.8	91.0	33	58.5	2	5	292	0.00	29.747 
18:30	91.6	91.6	91.0	34	59.2	1	5	270	0.00	29.747 
18:35	91.4	91.4	90.4	33	58.2	1	5	270	0.00	29.747 
18:40	91.2	91.2	90.5	34	58.9	2	6	270	0.00	29.747 
18:45	91.2	91.2	90.2	33	58.0	2	6	292	0.00	29.748 
18:50	91.2	91.2	90.5	34	58.9	2	6	248	0.00	29.748 
18:55	91.2	91.2	90.5	34	58.9	1	6	270	0.00	29.748 
19:00	91.0	91.0	90.5	35	59.5	1	4	270	0.00	29.742 
19:05	90.5	90.5	89.5	34	58.3	2	5	270	0.00	29.742 
19:10	90.1	90.1	88.8	33	57.1	2	7	248	0.00	29.742 
19:15	89.9	89.9	88.8	34	57.7	2	5	248	0.00	29.735 
19:20	89.7	89.7	88.8	35	58.4	1	6	248	0.00	29.735 
19:25	89.5	89.5	88.5	35	58.2	1	5	248	0.00	29.735 
19:30	89.5	89.5	88.5	35	58.2	1	4	270	0.00	29.740 
19:35	89.7	89.7	89.0	36	59.2	1	3	315	0.00	29.740 
19:40	89.5	89.5	88.8	36	59.0	1	4	315	0.00	29.740 
19:45	89.3	89.3	88.5	36	58.8	1	4	248	0.00	29.733 
19:50	89.0	89.0	88.1	36	58.5	1	4	270	0.00	29.733 
19:55	89.0	89.0	88.1	36	58.5	1	4	270	0.00	29.733 
20:00	88.8	88.8	88.1	37	59.1	2	4	270	0.00	29.738 
20:05	88.8	88.8	87.9	36	58.4	1	4	270	0.00	29.738 
20:10	88.6	88.6	87.6	36	58.2	1	4	248	0.00	29.738 
20:15	88.6	88.6	87.6	36	58.2	1	4	248	0.00	29.730 
20:20	88.4	88.4	87.6	37	58.8	2	4	270	0.00	29.730 
20:25	88.2	88.2	87.4	37	58.6	1	3	270	0.00	29.730 
20:30	88.0	88.0	87.4	38	59.2	1	3	270	0.00	29.730 
20:35	87.8	87.8	87.1	38	59.0	2	6	270	0.00	29.730 
20:40	87.6	87.6	86.9	38	58.8	1	2	68	0.00	29.730 
20:45	87.4	87.4	86.9	39	59.4	0	2	315	0.00	29.728 
20:50	87.2	87.2	86.6	39	59.2	0	2	315	0.00	29.728 
20:55	87.0	87.0	86.4	39	59.0	1	4	248	0.00	29.728 
21:00	86.7	86.7	86.3	40	59.5	0	2	292	0.00	29.728 
21:05	86.5	86.5	86.0	40	59.3	0	2	292	0.00	29.728 
21:10	86.3	86.3	86.0	41	59.8	0	2	292	0.00	29.728 
21:15	85.9	85.9	85.5	41	59.4	1	4	248	0.00	29.728 
21:20	85.9	85.9	85.5	41	59.4	1	4	248	0.00	29.728 
21:25	86.1	86.1	85.8	41	59.6	1	3	248	0.00	29.728 
21:30	86.1	86.1	85.8	41	59.6	1	4	270	0.00	29.730 
21:35	86.1	86.1	85.8	41	59.6	0	3	270	0.00	29.730 
21:40	85.9	85.9	85.5	41	59.4	1	7	270	0.00	29.730 
21:45	86.1	86.1	85.8	41	59.6	1	4	248	0.00	29.742 
21:50	86.1	86.1	86.0	42	60.3	1	3	270	0.00	29.742 
21:55	85.9	85.9	85.7	42	60.1	1	3	270	0.00	29.742 
22:00	85.7	85.7	85.5	42	59.9	1	3	248	0.00	29.744 
22:05	85.5	85.5	85.5	43	60.4	1	3	248	0.00	29.744 
22:10	85.3	85.3	85.2	43	60.2	0	2	248	0.00	29.744 
22:15	85.1	85.1	85.0	43	60.1	1	3	248	0.00	29.747 
22:20	85.1	85.1	85.2	44	60.7	0	1	338	0.00	29.747 
22:25	84.9	84.9	85.0	44	60.5	0	2	338	0.00	29.747 
22:30	84.7	84.7	84.7	44	60.3	1	4	270	0.00	29.750 
22:35	84.7	84.7	85.0	45	61.0	0	2	292	0.00	29.750 
22:40	84.5	84.5	84.7	45	60.8	0	2	270	0.00	29.750 
22:45	84.1	84.1	84.4	46	61.1	0	2	270	0.00	29.754 
22:50	84.0	84.0	84.3	46	61.0	0	2	270	0.00	29.754 
22:55	83.8	83.8	84.1	46	60.8	0	1	270	0.00	29.754 
23:00	83.6	83.6	84.1	47	61.2	0	1	270	0.00	29.757 
23:05	83.4	83.4	84.0	48	61.6	0	1	270	0.00	29.757 
23:10	83.2	83.2	83.8	48	61.4	0	2	270	0.00	29.757 
23:15	83.2	83.2	84.0	49	62.0	1	5	248	0.00	29.756 
23:20	83.2	83.2	84.0	49	62.0	0	3	248	0.00	29.756 
23:25	83.2	83.2	84.1	50	62.6	0	2	248	0.00	29.756 
23:30	83.2	83.2	84.1	50	62.6	0	2	248	0.00	29.757 
23:35	83.0	83.0	83.9	50	62.4	0	3	248	0.00	29.757 
23:40	82.8	82.8	83.8	51	62.8	1	3	270	0.00	29.757 
23:45	82.8	82.8	83.8	51	62.8	1	3	315	0.00	29.755 
23:50	82.8	82.8	83.8	51	62.8	1	3	292	0.00	29.755 
23:55	82.8	82.8	83.8	51	62.8	1	3	248	0.00	29.755 

CoCoRaHS
IN-AL-39
A2 Web Hosting
Creative Commons License
GoDaddy
search engine by freefind advanced

loaded 2018-11-21 00:28:10 • last modified 2010-11-18 10:43:29
Privacy PolicyDisclaimer
• wx.awcolley.com is powered by PmWiki v.2002016 •
• all content (unless otherwise noted) © 2018 A W Colley